Terminal Aerodrome Forecast
Issued by NWS Buffalo, NY

Home | Current Version | Previous Version | Text Only | Print | Product List | Glossary On
Versions: 1 2 3 4 5 6 7 8 9 10 11 12 13 14 15 16 17 18 19 20 21 22 23 24 25 26
000
FTUS41 KBUF 240537
TAFBUF
TAF
KBUF 240537Z 2406/2506 29006KT P6SM BKN025 BKN045
     FM240800 28007KT P6SM SCT045
     FM241800 25014G22KT P6SM FEW060
     FM241900 25015G25KT P6SM BKN060
     FM242300 24009KT P6SM BKN060
     FM250500 23007KT P6SM FEW060 SCT250=

USA.gov is the U.S. government's official web portal to all federal, state and local government web resources and services.